Time;durP1;ratioP1;P1;durP2;ratioP2;P2;SDS_P1;SDS_P2;PMS_P1;PMS_P2;Temp;Humidity;BMP_temperature;BMP_pressure;BME280_temperature;BME280_humidity;BME280_pressure;Samples;Min_cycle;Max_cycle;Signal;HPM_P1;HPM_P2
2022/06/09 00:00:18;;;;;;;5.00;4.50;;;20.90;99.90;;;;;;5081171;28;20526;-37
2022/06/09 00:02:48;;;;;;;4.90;4.50;;;20.90;99.90;;;;;;5081648;28;20437;-44
2022/06/09 00:05:16;;;;;;;4.97;4.47;;;20.90;99.90;;;;;;5080684;28;20449;-35
2022/06/09 00:07:47;;;;;;;4.23;3.80;;;20.90;99.90;;;;;;5080633;28;20538;-36
2022/06/09 00:10:20;;;;;;;5.57;4.80;;;20.90;99.90;;;;;;5080836;28;20498;-37
2022/06/09 00:12:47;;;;;;;5.30;4.10;;;20.90;99.90;;;;;;5080916;28;20459;-36
2022/06/09 00:15:14;;;;;;;9.83;5.43;;;20.90;99.90;;;;;;5080552;28;20445;-39
2022/06/09 00:17:43;;;;;;;5.10;4.67;;;20.90;99.90;;;;;;5079818;28;20463;-38
2022/06/09 00:20:11;;;;;;;4.63;4.17;;;20.80;99.90;;;;;;5080686;28;20477;-37
2022/06/09 00:22:40;;;;;;;3.50;3.20;;;20.80;99.90;;;;;;5080705;28;20449;-36
2022/06/09 00:25:07;;;;;;;3.90;3.60;;;20.80;99.90;;;;;;5080459;28;20454;-37
2022/06/09 00:27:34;;;;;;;5.20;3.97;;;20.70;99.90;;;;;;5080196;28;20442;-36
2022/06/09 00:30:01;;;;;;;4.60;4.17;;;20.80;99.90;;;;;;5080387;28;20959;-38
2022/06/09 00:32:28;;;;;;;4.30;3.80;;;20.70;99.90;;;;;;5080779;28;20498;-36
2022/06/09 00:34:55;;;;;;;4.67;4.27;;;20.70;99.90;;;;;;5080532;28;20530;-36
2022/06/09 00:37:22;;;;;;;4.57;4.23;;;20.70;99.90;;;;;;5080577;28;20461;-35
2022/06/09 00:39:50;;;;;;;4.00;3.70;;;20.70;99.90;;;;;;5081102;28;20442;-40
2022/06/09 00:42:17;;;;;;;4.10;3.73;;;20.60;99.90;;;;;;5080726;28;20439;-43
2022/06/09 00:44:45;;;;;;;4.70;3.50;;;20.60;99.90;;;;;;5080455;28;20463;-38
2022/06/09 00:47:20;;;;;;;3.33;3.03;;;20.70;99.90;;;;;;5080612;28;20470;-36
2022/06/09 00:49:52;;;;;;;3.83;3.53;;;20.60;99.90;;;;;;5080136;28;20411;-37
2022/06/09 00:52:23;;;;;;;5.20;4.47;;;20.60;99.90;;;;;;5078827;28;20475;-36
2022/06/09 00:54:56;;;;;;;3.20;3.00;;;20.50;99.90;;;;;;5077962;28;20462;-36
2022/06/09 00:57:26;;;;;;;4.20;3.10;;;20.50;99.90;;;;;;5076879;28;20419;-35
2022/06/09 00:59:56;;;;;;;3.17;2.87;;;20.40;99.90;;;;;;5077569;28;20412;-37
2022/06/09 01:02:24;;;;;;;3.40;3.10;;;20.40;99.90;;;;;;5077198;28;20510;-34
2022/06/09 01:04:53;;;;;;;3.83;3.00;;;20.40;99.90;;;;;;5077035;28;20459;-36
2022/06/09 01:07:23;;;;;;;3.80;3.50;;;20.40;99.90;;;;;;5076893;28;20484;-38
2022/06/09 01:09:52;;;;;;;3.33;3.07;;;20.30;99.90;;;;;;5077236;28;20495;-36
2022/06/09 01:12:26;;;;;;;7.70;3.00;;;20.30;99.90;;;;;;5077156;28;20443;-37
2022/06/09 01:14:55;;;;;;;3.90;3.50;;;20.20;99.90;;;;;;5076144;28;20530;-38
2022/06/09 01:17:29;;;;;;;6.37;2.60;;;20.20;99.90;;;;;;5076349;28;20538;-37
2022/06/09 01:20:16;;;;;;;3.00;2.63;;;20.20;99.90;;;;;;5075252;28;20415;-36
2022/06/09 01:23:19;;;;;;;8.13;3.30;;;20.10;99.90;;;;;;5075614;28;20531;-36
2022/06/09 01:26:19;;;;;;;2.90;2.70;;;20.10;99.90;;;;;;5075050;28;20446;-38
2022/06/09 01:29:25;;;;;;;3.47;2.90;;;20.10;99.90;;;;;;5075975;28;20511;-40
2022/06/09 01:31:59;;;;;;;2.40;2.20;;;20.00;99.90;;;;;;4975500;29;20459;-38
2022/06/09 01:34:34;;;;;;;3.10;2.43;;;20.00;99.90;;;;;;5062582;28;20556;-37
2022/06/09 01:37:08;;;;;;;2.77;2.47;;;19.90;99.90;;;;;;5076088;28;20490;-38
2022/06/09 01:39:46;;;;;;;4.53;3.00;;;19.90;99.90;;;;;;5075738;28;20471;-37
2022/06/09 01:42:33;;;;;;;3.30;3.00;;;19.90;99.90;;;;;;5076013;28;20471;-37
2022/06/09 01:45:05;;;;;;;2.97;2.40;;;19.90;99.90;;;;;;5075887;28;20515;-37
2022/06/09 01:47:40;;;;;;;2.70;2.20;;;19.80;99.90;;;;;;5086724;28;20867;-37
2022/06/09 01:50:11;;;;;;;2.93;2.63;;;19.80;99.90;;;;;;5088303;28;20822;-37
2022/06/09 01:52:40;;;;;;;4.70;2.77;;;19.80;99.90;;;;;;5085218;28;20438;-37
2022/06/09 01:55:08;;;;;;;4.40;2.30;;;19.80;99.90;;;;;;5086899;28;20482;-37
2022/06/09 01:57:39;;;;;;;4.17;2.37;;;19.70;99.90;;;;;;5091947;28;20506;-38
2022/06/09 02:00:09;;;;;;;2.20;2.00;;;19.70;99.90;;;;;;5087202;28;20443;-37
2022/06/09 02:02:41;;;;;;;2.10;1.90;;;19.70;99.90;;;;;;5086037;28;20538;-36
2022/06/09 02:05:12;;;;;;;2.60;2.23;;;19.60;99.90;;;;;;5084360;28;20449;-38
2022/06/09 02:07:42;;;;;;;2.67;2.20;;;19.70;99.90;;;;;;5082254;28;20515;-37
2022/06/09 02:10:18;;;;;;;2.30;2.10;;;19.60;99.90;;;;;;5073680;28;20449;-37
2022/06/09 02:12:48;;;;;;;2.30;2.10;;;19.70;99.90;;;;;;5075073;28;20483;-38
2022/06/09 02:15:22;;;;;;;1.70;1.57;;;19.70;99.90;;;;;;5068329;28;20479;-38
2022/06/09 02:17:52;;;;;;;3.23;2.07;;;19.70;99.90;;;;;;5069746;28;20416;-35
2022/06/09 02:20:22;;;;;;;2.73;2.23;;;19.60;99.90;;;;;;5068648;28;20498;-36
2022/06/09 02:22:50;;;;;;;3.90;1.90;;;19.60;99.90;;;;;;5072303;28;20805;-35
2022/06/09 02:25:19;;;;;;;2.60;2.07;;;19.60;99.90;;;;;;5074052;28;20550;-37
2022/06/09 02:27:46;;;;;;;7.53;2.67;;;19.60;99.90;;;;;;5071005;28;20456;-38
2022/06/09 02:30:13;;;;;;;2.47;1.90;;;19.60;99.90;;;;;;5068401;28;20471;-37
2022/06/09 02:32:40;;;;;;;2.47;2.17;;;19.60;99.90;;;;;;5068977;28;20474;-39
2022/06/09 02:35:09;;;;;;;3.97;1.83;;;19.60;99.90;;;;;;5068113;28;20486;-36
2022/06/09 02:37:36;;;;;;;2.43;1.77;;;19.50;99.90;;;;;;5067298;28;20475;-37
2022/06/09 02:40:04;;;;;;;1.70;1.50;;;19.40;99.90;;;;;;5064734;28;20443;-37
2022/06/09 02:42:31;;;;;;;2.87;2.10;;;19.40;99.90;;;;;;5061657;28;20983;-36
2022/06/09 02:44:58;;;;;;;3.33;1.83;;;19.40;99.90;;;;;;5066813;28;20419;-35
2022/06/09 02:47:25;;;;;;;2.90;2.30;;;19.30;99.90;;;;;;5070243;28;20429;-38
2022/06/09 02:49:52;;;;;;;4.63;2.17;;;19.30;99.90;;;;;;5068006;28;20546;-37
2022/06/09 02:52:20;;;;;;;3.57;2.30;;;19.30;99.90;;;;;;5069638;28;20524;-38
2022/06/09 02:54:54;;;;;;;4.50;2.40;;;19.20;99.90;;;;;;5067737;28;20559;-39
2022/06/09 02:57:23;;;;;;;2.00;1.80;;;19.20;99.90;;;;;;5066788;28;20435;-39
2022/06/09 02:59:54;;;;;;;2.77;2.57;;;19.20;99.90;;;;;;5065917;28;20447;-37
2022/06/09 03:02:21;;;;;;;1.67;1.57;;;19.20;99.90;;;;;;5070488;28;20494;-39
2022/06/09 03:04:53;;;;;;;3.87;2.40;;;19.20;99.90;;;;;;5067259;28;20526;-38
2022/06/09 03:07:24;;;;;;;2.70;1.50;;;19.10;99.90;;;;;;5060353;28;20550;-39
2022/06/09 03:09:51;;;;;;;3.07;2.03;;;19.10;99.90;;;;;;5068163;28;20459;-39
2022/06/09 03:12:18;;;;;;;4.40;2.20;;;19.00;99.90;;;;;;5065839;28;20478;-38
2022/06/09 03:14:45;;;;;;;3.93;1.93;;;19.10;99.90;;;;;;5068572;28;20507;-38
2022/06/09 03:17:12;;;;;;;5.33;2.00;;;19.10;99.90;;;;;;5070368;28;20473;-37
2022/06/09 03:19:42;;;;;;;1.93;1.67;;;19.00;99.90;;;;;;5067511;28;20470;-38
2022/06/09 03:22:13;;;;;;;3.10;2.50;;;19.00;99.90;;;;;;5062635;28;20944;-38
2022/06/09 03:24:42;;;;;;;2.80;2.10;;;19.00;99.90;;;;;;5069900;28;20506;-37
2022/06/09 03:27:11;;;;;;;4.93;2.07;;;19.00;99.90;;;;;;5069742;28;20463;-37
2022/06/09 03:29:38;;;;;;;1.90;1.47;;;18.90;99.90;;;;;;5059911;28;20453;-35
2022/06/09 03:32:06;;;;;;;2.80;2.00;;;19.00;99.90;;;;;;5072191;28;20430;-35
2022/06/09 03:34:32;;;;;;;2.87;1.90;;;19.00;99.90;;;;;;5072572;28;20497;-37
2022/06/09 03:36:59;;;;;;;1.97;1.77;;;18.90;99.90;;;;;;5071791;28;20463;-37
2022/06/09 03:39:26;;;;;;;1.97;1.60;;;18.90;99.90;;;;;;5069734;28;20589;-37
2022/06/09 03:41:54;;;;;;;5.13;2.20;;;18.90;99.90;;;;;;5072725;28;20534;-37
2022/06/09 03:44:24;;;;;;;3.27;1.87;;;18.90;99.90;;;;;;5067573;28;20424;-35
2022/06/09 03:46:51;;;;;;;3.13;2.10;;;18.90;99.90;;;;;;5073620;28;20446;-36
2022/06/09 03:49:17;;;;;;;2.20;1.63;;;18.90;99.90;;;;;;5074129;28;20443;-35
2022/06/09 03:51:44;;;;;;;3.47;1.90;;;18.90;99.90;;;;;;5074759;28;20515;-36
2022/06/09 03:54:14;;;;;;;1.97;1.63;;;18.90;99.90;;;;;;5074021;28;20483;-36
2022/06/09 03:56:42;;;;;;;2.70;1.70;;;18.80;99.90;;;;;;5074938;28;20936;-38
2022/06/09 03:59:11;;;;;;;3.40;1.90;;;18.80;99.90;;;;;;5074060;28;20471;-37
2022/06/09 04:01:39;;;;;;;6.30;2.20;;;18.80;99.90;;;;;;5074416;28;20467;-38
2022/06/09 04:04:06;;;;;;;6.27;2.70;;;18.80;99.90;;;;;;5074805;28;20420;-52
2022/06/09 04:06:35;;;;;;;10.80;1.90;;;18.80;99.90;;;;;;5074349;28;20514;-37
2022/06/09 04:09:02;;;;;;;5.57;2.80;;;18.80;99.90;;;;;;5074422;28;20438;-37
2022/06/09 04:11:29;;;;;;;5.93;2.40;;;18.90;99.90;;;;;;5073710;28;20501;-37
2022/06/09 04:13:56;;;;;;;2.63;2.10;;;18.80;99.90;;;;;;5073479;28;20506;-36
2022/06/09 04:16:27;;;;;;;2.63;2.20;;;18.90;99.90;;;;;;5073803;28;20465;-35
2022/06/09 04:18:56;;;;;;;4.30;1.93;;;18.80;99.90;;;;;;5074052;28;20435;-33
2022/06/09 04:21:24;;;;;;;2.63;2.23;;;18.80;99.90;;;;;;5073971;28;20435;-39
2022/06/09 04:23:52;;;;;;;2.63;2.00;;;18.80;99.90;;;;;;5058200;28;20519;-37
2022/06/09 04:26:21;;;;;;;4.70;2.70;;;18.80;99.90;;;;;;5073878;28;20465;-34
2022/06/09 04:28:48;;;;;;;3.00;1.93;;;18.90;99.90;;;;;;5076596;28;20495;-35
2022/06/09 04:31:16;;;;;;;3.50;2.00;;;18.90;99.90;;;;;;5078078;28;20440;-41
2022/06/09 04:33:48;;;;;;;2.43;2.00;;;18.90;99.90;;;;;;5077800;28;20559;-37
2022/06/09 04:36:16;;;;;;;3.70;1.93;;;18.90;99.90;;;;;;5077065;28;20469;-35
2022/06/09 04:38:44;;;;;;;2.33;2.00;;;18.90;99.90;;;;;;5077633;28;20445;-44
2022/06/09 04:41:12;;;;;;;4.80;2.37;;;18.90;99.90;;;;;;5077616;28;20474;-36
2022/06/09 04:43:40;;;;;;;1.77;1.37;;;18.90;99.90;;;;;;5070027;28;20507;-34
2022/06/09 04:46:08;;;;;;;3.23;1.80;;;19.00;99.90;;;;;;5077670;28;20471;-37
2022/06/09 04:48:36;;;;;;;4.27;1.90;;;19.00;99.90;;;;;;5077490;28;20459;-37
2022/06/09 04:51:06;;;;;;;2.80;2.17;;;19.00;99.90;;;;;;5077283;28;20506;-40
2022/06/09 04:53:33;;;;;;;6.83;2.17;;;19.10;99.90;;;;;;5077452;28;20432;-35
2022/06/09 04:56:01;;;;;;;6.60;2.57;;;19.10;99.90;;;;;;5076984;28;20498;-36
2022/06/09 04:58:28;;;;;;;3.23;2.20;;;19.20;99.90;;;;;;5077351;28;20883;-38
2022/06/09 05:00:55;;;;;;;3.17;2.03;;;19.30;99.90;;;;;;5076931;28;20467;-38
2022/06/09 05:03:25;;;;;;;4.27;2.03;;;19.40;99.90;;;;;;5076992;28;20461;-38
2022/06/09 05:05:54;;;;;;;3.97;2.10;;;19.50;99.90;;;;;;5076701;28;20435;-38
2022/06/09 05:08:23;;;;;;;3.67;1.73;;;19.70;99.90;;;;;;5076842;28;20519;-35
2022/06/09 05:10:50;;;;;;;9.83;2.30;;;19.80;99.90;;;;;;5077177;28;20931;-37
2022/06/09 05:13:17;;;;;;;3.47;1.77;;;19.80;99.90;;;;;;5077045;28;20458;-38
2022/06/09 05:15:50;;;;;;;2.50;2.17;;;19.80;99.90;;;;;;5076551;28;20489;-38
2022/06/09 05:18:17;;;;;;;1.60;1.50;;;19.80;99.90;;;;;;5077356;28;20424;-38
2022/06/09 05:20:45;;;;;;;1.63;1.53;;;19.90;99.90;;;;;;5076843;28;20486;-38
2022/06/09 05:23:12;;;;;;;2.20;1.50;;;19.90;99.90;;;;;;5076318;28;20439;-38
2022/06/09 05:25:40;;;;;;;2.23;1.60;;;19.90;99.90;;;;;;5076784;28;21165;-39
2022/06/09 05:28:07;;;;;;;4.70;2.10;;;19.90;99.90;;;;;;5065407;28;21004;-38
2022/06/09 05:30:34;;;;;;;1.63;1.37;;;19.90;99.90;;;;;;5068562;28;20490;-37
2022/06/09 05:33:02;;;;;;;2.90;1.90;;;19.90;99.90;;;;;;5064246;28;20475;-40
2022/06/09 05:35:32;;;;;;;2.17;1.43;;;19.90;99.90;;;;;;5070890;28;20586;-37
2022/06/09 05:46:15;;;;;;;3.47;2.13;;;19.90;99.90;;;;;;5059379;28;20407;-37
2022/06/09 05:48:42;;;;;;;1.80;1.30;;;19.80;99.90;;;;;;5073393;28;20459;-38
2022/06/09 05:51:09;;;;;;;2.43;1.90;;;19.80;99.90;;;;;;5070019;28;20475;-45
2022/06/09 05:53:36;;;;;;;2.27;1.60;;;19.80;99.90;;;;;;5069624;28;20543;-38
2022/06/09 05:56:06;;;;;;;2.80;1.93;;;19.90;99.90;;;;;;5068692;28;20479;-38
2022/06/09 05:58:33;;;;;;;4.30;1.77;;;19.80;99.90;;;;;;5070455;28;20479;-38
2022/06/09 06:01:02;;;;;;;3.33;1.50;;;19.80;99.90;;;;;;5075024;28;20501;-38
2022/06/09 06:03:29;;;;;;;2.97;1.63;;;19.90;99.90;;;;;;5090599;28;20418;-37
2022/06/09 06:08:40;;;;;;;1.60;1.37;;;19.90;99.90;;;;;;5086877;28;20457;-36
2022/06/09 06:11:08;;;;;;;2.43;1.90;;;20.10;99.90;;;;;;5096250;28;20473;-38
2022/06/09 06:13:35;;;;;;;2.77;1.90;;;20.10;99.90;;;;;;5095723;28;20470;-38
2022/06/09 06:16:02;;;;;;;3.17;1.67;;;20.10;99.90;;;;;;5096174;28;20553;-38
2022/06/09 06:18:29;;;;;;;1.70;1.30;;;20.10;99.90;;;;;;5096848;28;20446;-36
2022/06/09 06:20:56;;;;;;;5.63;1.73;;;20.00;99.90;;;;;;5096180;28;20537;-35
2022/06/09 06:23:25;;;;;;;1.93;1.37;;;20.00;99.90;;;;;;5096680;28;20495;-35
2022/06/09 06:25:53;;;;;;;2.80;1.73;;;19.90;99.90;;;;;;5096608;28;20464;-35
2022/06/09 06:28:22;;;;;;;4.70;1.50;;;20.00;99.90;;;;;;5096182;28;20434;-38
2022/06/09 06:30:50;;;;;;;2.77;1.63;;;20.20;99.90;;;;;;5096285;28;20438;-37
2022/06/09 06:33:17;;;;;;;3.07;1.73;;;20.40;99.90;;;;;;5095438;28;20469;-38
2022/06/09 06:35:44;;;;;;;2.60;1.30;;;20.60;99.90;;;;;;5095708;28;20474;-38
2022/06/09 06:38:11;;;;;;;3.20;1.43;;;20.80;99.90;;;;;;5096272;28;20486;-36
2022/06/09 06:40:41;;;;;;;3.10;2.03;;;21.00;99.90;;;;;;5096141;28;20450;-37
2022/06/09 06:43:08;;;;;;;1.70;1.60;;;21.20;99.90;;;;;;5096370;28;20454;-37
2022/06/09 06:45:37;;;;;;;1.93;1.73;;;21.20;99.90;;;;;;5096001;28;20494;-35
2022/06/09 06:48:05;;;;;;;2.23;1.70;;;21.30;99.90;;;;;;5095738;28;20483;-38
2022/06/09 06:50:32;;;;;;;2.70;1.60;;;21.20;99.90;;;;;;5094932;28;20458;-38
2022/06/09 06:53:00;;;;;;;3.60;1.90;;;21.20;99.90;;;;;;5095662;28;20468;-34
2022/06/09 06:55:27;;;;;;;2.10;1.40;;;21.20;99.90;;;;;;5079212;28;20492;-37
2022/06/09 06:57:54;;;;;;;1.60;1.43;;;21.30;99.90;;;;;;5095226;28;20510;-35
2022/06/09 07:00:23;;;;;;;3.70;1.30;;;21.20;99.90;;;;;;5094827;28;20513;-41
2022/06/09 07:02:52;;;;;;;3.67;1.60;;;21.10;99.90;;;;;;5095458;28;20450;-37
2022/06/09 07:05:21;;;;;;;7.53;1.93;;;20.90;99.90;;;;;;5094525;28;20439;-40
2022/06/09 07:07:49;;;;;;;3.13;1.37;;;20.80;99.90;;;;;;5094927;28;20494;-38
2022/06/09 07:10:18;;;;;;;1.73;1.60;;;20.70;99.90;;;;;;5094538;28;20462;-36
2022/06/09 07:12:45;;;;;;;3.13;2.53;;;20.60;99.90;;;;;;5094898;28;20442;-35
2022/06/09 07:15:15;;;;;;;2.30;1.67;;;20.60;99.90;;;;;;5094591;28;20482;-37
2022/06/09 07:17:42;;;;;;;2.67;1.73;;;20.50;99.90;;;;;;5095047;28;20482;-38
2022/06/09 07:20:13;;;;;;;2.30;1.70;;;20.40;99.90;;;;;;5095017;28;20446;-36
2022/06/09 07:22:39;;;;;;;1.83;1.53;;;20.40;99.90;;;;;;5095033;28;20411;-37
2022/06/09 07:25:08;;;;;;;3.03;1.57;;;20.30;99.90;;;;;;5094974;28;20450;-38
2022/06/09 07:27:35;;;;;;;2.27;1.77;;;20.30;99.90;;;;;;5094480;28;20466;-43
2022/06/09 07:30:02;;;;;;;2.80;1.80;;;20.20;99.90;;;;;;5079522;28;20498;-37
2022/06/09 07:32:29;;;;;;;1.63;1.20;;;20.20;99.90;;;;;;5092835;28;20470;-37
2022/06/09 07:34:59;;;;;;;1.70;1.23;;;20.10;99.90;;;;;;5078823;28;20915;-38
2022/06/09 07:37:27;;;;;;;1.83;1.50;;;20.00;99.90;;;;;;5093669;28;20445;-35
2022/06/09 07:39:54;;;;;;;4.90;1.67;;;20.00;99.90;;;;;;5093888;28;20478;-37
2022/06/09 07:42:21;;;;;;;2.10;1.63;;;19.90;99.90;;;;;;5094821;28;20445;-36
2022/06/09 07:44:47;;;;;;;2.10;1.43;;;19.90;99.90;;;;;;5094550;28;20466;-38
2022/06/09 07:47:14;;;;;;;3.50;1.70;;;19.90;99.90;;;;;;5092278;28;20506;-39
2022/06/09 07:49:44;;;;;;;7.17;2.40;;;19.90;99.90;;;;;;5080222;28;20473;-36
2022/06/09 07:52:11;;;;;;;2.80;2.10;;;20.00;99.90;;;;;;5094380;28;20490;-39
2022/06/09 07:54:39;;;;;;;5.20;1.97;;;20.10;99.90;;;;;;5094919;28;20443;-38
2022/06/09 07:57:06;;;;;;;5.33;2.67;;;20.20;99.90;;;;;;5094256;28;20530;-36
2022/06/09 07:59:34;;;;;;;2.80;1.83;;;20.20;99.90;;;;;;5095093;28;20462;-37
2022/06/09 08:02:02;;;;;;;3.00;1.60;;;20.30;99.90;;;;;;5095020;28;20442;-44
2022/06/09 08:04:28;;;;;;;2.30;2.00;;;20.40;99.90;;;;;;5097576;28;20443;-39
2022/06/09 08:06:55;;;;;;;4.13;2.07;;;20.40;99.90;;;;;;5097733;28;20441;-39
2022/06/09 08:09:22;;;;;;;2.50;1.90;;;20.40;99.90;;;;;;5098021;28;20506;-37
2022/06/09 08:11:51;;;;;;;4.90;2.50;;;20.30;99.90;;;;;;5098250;28;20480;-39
2022/06/09 08:14:21;;;;;;;2.20;2.00;;;20.20;99.90;;;;;;5098117;28;20469;-37
2022/06/09 08:16:48;;;;;;;4.63;2.13;;;20.00;99.90;;;;;;5097979;28;20492;-37
2022/06/09 08:19:15;;;;;;;5.03;3.30;;;19.90;99.90;;;;;;5098086;28;20532;-41
2022/06/09 08:21:42;;;;;;;1.87;1.70;;;19.70;99.90;;;;;;5097797;28;20526;-39
2022/06/09 08:24:10;;;;;;;8.00;1.93;;;19.60;99.90;;;;;;5097704;28;20513;-39
2022/06/09 08:26:37;;;;;;;4.20;2.10;;;19.50;99.90;;;;;;5097149;28;20462;-38
2022/06/09 08:29:05;;;;;;;2.33;1.60;;;19.50;99.90;;;;;;5097671;28;20427;-38
2022/06/09 08:31:32;;;;;;;2.60;1.80;;;19.30;99.90;;;;;;5097861;28;20478;-38
2022/06/09 08:33:59;;;;;;;3.50;2.93;;;19.20;99.90;;;;;;5096724;28;20458;-34
2022/06/09 08:36:26;;;;;;;1.90;1.70;;;19.20;99.90;;;;;;5097949;28;20476;-47
2022/06/09 08:38:53;;;;;;;2.10;1.73;;;19.00;99.90;;;;;;5097583;28;20513;-35
2022/06/09 08:41:42;;;;;;;3.40;2.03;;;19.00;99.90;;;;;;5097946;28;20442;-36
2022/06/09 08:44:17;;;;;;;2.60;2.13;;;19.00;99.90;;;;;;5096592;28;20450;-38
2022/06/09 08:46:50;;;;;;;5.13;2.90;;;19.00;99.90;;;;;;5097241;28;20446;-37
2022/06/09 08:49:39;;;;;;;2.80;2.17;;;19.00;99.90;;;;;;5097315;28;20436;-37
2022/06/09 08:52:17;;;;;;;3.10;1.90;;;19.00;99.90;;;;;;5097751;28;20526;-36
2022/06/09 08:54:45;;;;;;;2.90;2.13;;;19.00;99.90;;;;;;5097399;28;20429;-38
2022/06/09 08:57:17;;;;;;;3.37;2.33;;;19.00;99.90;;;;;;5097230;28;20521;-37
2022/06/09 08:59:51;;;;;;;3.20;2.33;;;19.00;99.90;;;;;;5097574;28;20453;-38
2022/06/09 09:02:28;;;;;;;2.50;2.30;;;19.10;99.90;;;;;;5086158;28;20433;-42
2022/06/09 09:05:03;;;;;;;6.10;2.00;;;19.20;99.90;;;;;;5091840;28;20488;-38
2022/06/09 09:07:32;;;;;;;2.27;2.00;;;19.10;99.90;;;;;;5097160;28;20422;-37
2022/06/09 09:10:12;;;;;;;2.40;2.10;;;19.20;99.90;;;;;;5097205;28;20477;-40
2022/06/09 09:12:45;;;;;;;5.70;2.27;;;19.10;99.90;;;;;;5082734;28;20423;-36
2022/06/09 09:15:28;;;;;;;3.23;2.40;;;19.10;99.90;;;;;;5096525;28;20502;-37
2022/06/09 09:18:15;;;;;;;3.37;2.27;;;19.10;99.90;;;;;;5096907;28;20458;-46
2022/06/09 09:20:54;;;;;;;2.83;2.13;;;19.20;99.90;;;;;;5096205;28;20434;-37
2022/06/09 09:23:27;;;;;;;3.40;1.97;;;19.30;99.90;;;;;;5097100;28;20492;-38
2022/06/09 09:26:01;;;;;;;5.97;2.87;;;19.40;99.90;;;;;;5097217;28;20442;-40
2022/06/09 09:28:32;;;;;;;6.33;2.60;;;19.50;99.90;;;;;;5096041;28;20478;-38
2022/06/09 09:31:14;;;;;;;4.30;2.93;;;19.60;99.90;;;;;;5096995;28;20482;-35
2022/06/09 09:33:40;;;;;;;5.00;2.57;;;19.70;99.90;;;;;;5096723;28;20443;-39
2022/06/09 09:36:18;;;;;;;2.33;2.13;;;19.80;99.90;;;;;;5088265;28;20533;-39
2022/06/09 09:38:51;;;;;;;8.60;3.70;;;19.90;99.90;;;;;;5088724;28;20422;-36
2022/06/09 09:41:28;;;;;;;6.50;2.60;;;19.90;99.90;;;;;;5096465;28;20529;-37
2022/06/09 09:43:56;;;;;;;4.63;2.40;;;19.90;99.90;;;;;;5096132;28;20423;-37
2022/06/09 09:46:29;;;;;;;2.73;2.50;;;19.90;99.90;;;;;;5096163;28;20432;-36
2022/06/09 09:48:58;;;;;;;5.37;2.93;;;19.90;99.90;;;;;;5096379;28;20427;-41
2022/06/09 09:51:33;;;;;;;12.50;3.03;;;20.00;99.90;;;;;;5095997;28;20514;-38
2022/06/09 09:54:10;;;;;;;4.70;2.90;;;20.00;99.90;;;;;;5096005;28;20505;-36
2022/06/09 09:56:38;;;;;;;4.03;3.03;;;20.00;99.90;;;;;;5096128;28;20462;-36
2022/06/09 09:59:20;;;;;;;3.63;2.77;;;20.00;99.90;;;;;;5096102;28;20470;-36
2022/06/09 10:10:14;;;;;;;3.30;3.00;;;20.10;99.90;;;;;;5089310;28;20413;-39
2022/06/09 10:12:41;;;;;;;3.30;2.40;;;20.20;99.90;;;;;;5094766;28;20450;-33
2022/06/09 10:15:16;;;;;;;3.10;2.80;;;20.10;99.90;;;;;;5086159;28;20442;-39
2022/06/09 10:17:55;;;;;;;7.03;2.83;;;20.20;99.90;;;;;;5090277;28;20553;-37
2022/06/09 10:20:30;;;;;;;2.33;2.10;;;20.20;99.90;;;;;;5095707;28;20454;-43
2022/06/09 10:23:02;;;;;;;2.77;2.57;;;20.30;99.90;;;;;;5095009;28;20557;-37
2022/06/09 10:25:36;;;;;;;2.93;2.63;;;20.40;99.90;;;;;;5086662;28;20443;-35
2022/06/09 10:28:11;;;;;;;3.47;2.70;;;20.50;99.90;;;;;;5086135;28;20928;-38
2022/06/09 10:30:43;;;;;;;3.60;2.70;;;20.40;99.90;;;;;;5094872;28;20485;-39
2022/06/09 10:33:23;;;;;;;2.83;2.23;;;20.50;99.90;;;;;;5094228;28;20474;-37
2022/06/09 10:35:56;;;;;;;5.57;3.50;;;20.60;99.90;;;;;;5094404;28;20500;-39
2022/06/09 10:38:30;;;;;;;3.80;2.90;;;20.70;99.90;;;;;;5095042;28;20449;-36
2022/06/09 10:41:00;;;;;;;3.50;3.20;;;20.80;99.90;;;;;;5078940;28;20422;-37
2022/06/09 10:43:33;;;;;;;4.77;3.07;;;20.90;99.90;;;;;;5094021;28;20461;-37
2022/06/09 10:46:06;;;;;;;3.07;2.77;;;21.00;99.90;;;;;;5094979;28;20479;-36
2022/06/09 10:57:24;;;;;;;2.90;2.67;;;20.90;99.90;;;;;;5094787;28;20460;-39
2022/06/09 10:59:56;;;;;;;4.00;2.77;;;20.90;99.90;;;;;;5094780;28;20534;-41
2022/06/09 11:02:27;;;;;;;5.03;2.97;;;20.90;99.90;;;;;;5094214;28;20427;-40
2022/06/09 11:04:56;;;;;;;6.37;3.20;;;20.90;99.90;;;;;;5094298;28;20450;-39
2022/06/09 11:07:44;;;;;;;3.77;3.17;;;20.80;99.90;;;;;;5093714;28;20508;-37
2022/06/09 11:10:28;;;;;;;4.97;3.27;;;20.80;99.90;;;;;;5093998;28;20498;-38
2022/06/09 11:13:35;;;;;;;3.10;2.80;;;20.70;99.90;;;;;;5092970;28;20501;-37
2022/06/09 11:16:11;;;;;;;4.57;3.20;;;20.60;99.90;;;;;;5034585;28;20802;-38
2022/06/09 11:18:47;;;;;;;6.63;4.03;;;20.60;99.90;;;;;;5094016;28;20473;-36
2022/06/09 11:21:23;;;;;;;6.10;3.87;;;20.60;99.90;;;;;;5094550;28;20454;-38
2022/06/09 11:24:13;;;;;;;5.00;3.80;;;20.60;99.90;;;;;;5079589;28;20550;-37
2022/06/09 11:26:50;;;;;;;5.63;3.17;;;20.60;99.90;;;;;;5093376;28;20493;-37
2022/06/09 11:29:41;;;;;;;5.53;3.77;;;20.50;99.90;;;;;;5094319;28;20426;-38
2022/06/09 11:32:14;;;;;;;6.00;3.63;;;20.50;99.90;;;;;;5094267;28;20429;-41
2022/06/09 11:34:54;;;;;;;6.33;3.60;;;20.50;99.90;;;;;;5091652;28;20459;-39
2022/06/09 11:37:46;;;;;;;4.73;2.80;;;20.50;99.90;;;;;;5083958;28;20490;-42
2022/06/09 11:40:23;;;;;;;8.80;3.80;;;20.50;99.90;;;;;;5094384;28;20445;-36
2022/06/09 11:43:05;;;;;;;3.93;3.47;;;20.60;99.90;;;;;;5080467;28;20470;-38
2022/06/09 11:45:37;;;;;;;3.90;3.10;;;20.60;99.90;;;;;;5092523;28;20450;-37
2022/06/09 11:48:07;;;;;;;4.87;3.80;;;20.70;99.90;;;;;;5093611;28;20446;-38
2022/06/09 11:50:39;;;;;;;3.97;3.47;;;20.80;99.90;;;;;;5094048;28;20411;-39
2022/06/09 11:53:08;;;;;;;4.27;3.87;;;21.00;99.90;;;;;;5094391;28;20498;-42
2022/06/09 11:58:45;;;;;;;5.50;3.27;;;21.10;99.90;;;;;;5089869;28;20534;-39
2022/06/09 12:01:43;;;;;;;8.97;3.90;;;21.20;99.90;;;;;;5094041;28;20526;-39
2022/06/09 12:04:19;;;;;;;3.57;3.27;;;21.20;99.90;;;;;;5093926;28;20423;-38
2022/06/09 12:07:11;;;;;;;4.73;3.47;;;21.20;99.90;;;;;;5094092;28;20533;-41
2022/06/09 12:09:51;;;;;;;5.33;4.60;;;21.30;99.90;;;;;;5094005;28;20427;-36
2022/06/09 12:12:33;;;;;;;4.70;4.00;;;21.30;99.90;;;;;;5093921;28;20419;-37
2022/06/09 12:15:29;;;;;;;7.57;4.30;;;21.40;99.90;;;;;;5094259;28;20433;-36
2022/06/09 12:18:26;;;;;;;4.70;3.60;;;21.50;99.90;;;;;;5093741;28;20490;-37
2022/06/09 12:21:04;;;;;;;3.80;3.47;;;21.50;99.90;;;;;;5086775;28;20922;-39
2022/06/09 12:23:34;;;;;;;6.43;4.03;;;21.50;99.90;;;;;;5087232;28;20426;-37
2022/06/09 12:26:49;;;;;;;7.33;3.93;;;21.50;99.90;;;;;;5093709;28;20427;-35
2022/06/09 12:29:44;;;;;;;3.63;3.33;;;21.50;99.90;;;;;;5094107;28;20898;-37
2022/06/09 12:32:40;;;;;;;4.80;3.37;;;21.40;99.90;;;;;;5057664;28;20462;-39
2022/06/09 12:35:33;;;;;;;8.23;3.83;;;21.40;99.90;;;;;;5092898;28;20439;-36
2022/06/09 12:38:05;;;;;;;6.50;3.43;;;21.40;99.90;;;;;;5093774;28;20509;-37
2022/06/09 12:40:42;;;;;;;6.03;3.87;;;21.40;99.90;;;;;;5093839;28;20458;-38
2022/06/09 12:43:34;;;;;;;4.10;3.60;;;21.40;99.90;;;;;;5080983;28;20450;-38
2022/06/09 12:46:15;;;;;;;3.77;3.47;;;21.40;99.90;;;;;;5093471;28;20496;-45
2022/06/09 12:48:42;;;;;;;6.67;3.40;;;21.50;99.90;;;;;;5087516;28;20457;-39
2022/06/09 12:51:16;;;;;;;4.43;4.00;;;21.50;99.90;;;;;;5086971;28;20430;-43
2022/06/09 12:53:53;;;;;;;4.63;3.37;;;21.50;99.90;;;;;;5096940;28;20435;-36
2022/06/09 12:56:27;;;;;;;8.83;3.87;;;21.60;99.90;;;;;;5097123;28;20466;-37
2022/06/09 12:58:56;;;;;;;3.73;3.40;;;21.60;99.90;;;;;;5097310;28;20428;-37
2022/06/09 13:01:26;;;;;;;4.00;3.60;;;21.70;99.90;;;;;;5097071;28;20496;-39
2022/06/09 13:03:59;;;;;;;5.03;3.20;;;21.70;99.90;;;;;;5081365;28;20434;-39
2022/06/09 13:06:28;;;;;;;4.13;3.73;;;21.70;99.90;;;;;;5097087;28;20444;-39
2022/06/09 13:08:58;;;;;;;4.70;3.50;;;21.60;99.90;;;;;;5096865;28;20439;-38
2022/06/09 13:14:20;;;;;;;4.43;3.33;;;21.40;99.90;;;;;;5096766;28;20488;-38
2022/06/09 13:16:50;;;;;;;6.80;4.00;;;21.30;99.90;;;;;;5096979;28;20427;-37
2022/06/09 13:19:20;;;;;;;4.40;4.00;;;21.30;99.90;;;;;;5097081;28;20462;-43
2022/06/09 13:21:48;;;;;;;3.60;2.90;;;21.40;99.90;;;;;;5080633;28;20442;-36
2022/06/09 13:24:22;;;;;;;7.33;3.70;;;21.40;99.90;;;;;;5096661;28;21030;-36
2022/06/09 13:26:50;;;;;;;3.83;3.47;;;21.50;99.90;;;;;;5095885;28;20502;-38
2022/06/09 13:29:23;;;;;;;5.57;4.00;;;21.50;99.90;;;;;;5096238;28;20418;-36
2022/06/09 13:31:52;;;;;;;6.17;3.00;;;21.50;99.90;;;;;;5096140;28;20545;-36
2022/06/09 13:34:24;;;;;;;6.67;3.90;;;21.50;99.90;;;;;;5096376;28;20471;-48
2022/06/09 13:37:09;;;;;;;5.43;4.00;;;21.50;99.90;;;;;;5094719;28;20434;-42
2022/06/09 13:39:43;;;;;;;7.03;4.90;;;21.50;99.90;;;;;;5084165;28;20498;-40
2022/06/09 13:42:24;;;;;;;5.93;4.43;;;21.50;99.90;;;;;;5095964;28;20514;-37
2022/06/09 13:45:19;;;;;;;4.80;4.20;;;21.30;99.90;;;;;;5095466;28;20462;-39